Time;durP1;ratioP1;P1;durP2;ratioP2;P2;SDS_P1;SDS_P2;PMS_P1;PMS_P2;Temp;Humidity;BMP_temperature;BMP_pressure;BME280_temperature;BME280_humidity;BME280_pressure;Samples;Min_cycle;Max_cycle;Signal;HPM_P1;HPM_P2
2023/07/28 00:02:08;;;;;;;14.38;4.47;;;17.50;99.90;;;;;;4942723;29;20032;-81
2023/07/28 00:04:35;;;;;;;12.48;4.50;;;17.50;99.90;;;;;;4934568;29;20032;-80
2023/07/28 00:07:01;;;;;;;22.02;5.00;;;17.50;99.90;;;;;;4935810;29;20024;-79
2023/07/28 00:09:26;;;;;;;22.15;4.15;;;17.50;99.90;;;;;;4935699;28;20087;-82
2023/07/28 00:11:52;;;;;;;19.52;4.55;;;17.50;99.90;;;;;;4936085;29;20019;-81
2023/07/28 00:14:18;;;;;;;19.55;5.03;;;17.50;99.90;;;;;;4935863;29;20020;-81
2023/07/28 00:16:43;;;;;;;12.63;4.43;;;17.50;99.90;;;;;;4935642;29;20468;-83
2023/07/28 00:19:09;;;;;;;15.02;4.60;;;17.50;99.90;;;;;;4935577;28;20035;-82
2023/07/28 00:21:35;;;;;;;16.00;4.32;;;17.50;99.90;;;;;;4937887;29;20461;-83
2023/07/28 00:24:00;;;;;;;11.48;4.63;;;17.50;99.90;;;;;;4935418;29;20026;-82
2023/07/28 00:26:26;;;;;;;18.08;4.32;;;17.50;99.90;;;;;;4935205;29;20032;-80
2023/07/28 00:28:51;;;;;;;18.60;4.05;;;17.50;99.90;;;;;;4933163;28;20046;-80
2023/07/28 00:31:17;;;;;;;15.77;4.20;;;17.50;99.90;;;;;;4944627;28;20039;-81
2023/07/28 00:33:43;;;;;;;12.60;4.03;;;17.50;99.90;;;;;;4933172;29;20111;-81
2023/07/28 00:36:08;;;;;;;11.07;4.20;;;17.50;99.90;;;;;;4934329;29;20036;-82
2023/07/28 00:38:34;;;;;;;19.30;4.80;;;17.50;99.90;;;;;;4935241;29;20020;-81
2023/07/28 00:41:00;;;;;;;13.00;4.63;;;17.50;99.90;;;;;;4934878;28;20465;-82
2023/07/28 00:43:26;;;;;;;20.58;5.05;;;17.50;99.90;;;;;;4933995;29;20087;-81
2023/07/28 00:45:51;;;;;;;16.13;5.72;;;17.50;99.90;;;;;;4946460;28;20421;-80
2023/07/28 00:48:17;;;;;;;14.15;3.92;;;17.50;99.90;;;;;;4948559;28;20027;-83
2023/07/28 00:50:48;;;;;;;15.82;5.40;;;17.50;99.90;;;;;;4944197;23;20404;-84
2023/07/28 00:53:14;;;;;;;12.75;5.32;;;17.50;99.90;;;;;;4915700;29;20548;-84
2023/07/28 00:55:40;;;;;;;14.57;5.40;;;17.50;99.90;;;;;;4915550;29;20051;-85
2023/07/28 00:58:06;;;;;;;15.90;5.63;;;17.50;99.90;;;;;;4915658;29;20051;-84
2023/07/28 01:00:32;;;;;;;12.57;5.43;;;17.50;99.90;;;;;;4929581;29;20075;-85
2023/07/28 01:02:57;;;;;;;19.88;6.18;;;17.50;99.90;;;;;;4897899;29;20116;-84
2023/07/28 01:06:00;;;;;;;13.90;6.30;;;17.50;99.90;;;;;;4896750;29;20031;-84
2023/07/28 01:08:48;;;;;;;18.63;6.15;;;17.50;99.90;;;;;;4929392;29;20074;-84
2023/07/28 01:11:14;;;;;;;12.55;5.85;;;17.50;99.90;;;;;;4902436;29;20505;-83
2023/07/28 01:13:40;;;;;;;13.40;5.47;;;17.50;99.90;;;;;;4897515;29;20399;-84
2023/07/28 01:16:07;;;;;;;16.60;6.55;;;17.40;99.90;;;;;;4896180;29;20381;-84
2023/07/28 01:18:33;;;;;;;16.92;7.63;;;17.50;99.90;;;;;;4897334;29;20028;-84
2023/07/28 01:21:03;;;;;;;16.58;6.10;;;17.50;99.90;;;;;;4905366;29;20525;-85
2023/07/28 01:24:15;;;;;;;15.63;6.22;;;17.40;99.90;;;;;;4897160;29;20027;-85
2023/07/28 01:26:41;;;;;;;19.38;6.78;;;17.50;99.90;;;;;;4903282;29;20028;-82
2023/07/28 01:29:07;;;;;;;19.13;5.55;;;17.50;99.90;;;;;;4897084;29;20043;-84
2023/07/28 01:31:33;;;;;;;13.65;5.95;;;17.40;99.90;;;;;;4896012;29;20024;-85
2023/07/28 01:33:59;;;;;;;13.10;5.68;;;17.40;99.90;;;;;;4895755;29;20047;-83
2023/07/28 01:36:25;;;;;;;16.20;6.30;;;17.40;99.90;;;;;;4896841;29;20041;-85
2023/07/28 01:38:50;;;;;;;15.43;5.75;;;17.40;99.90;;;;;;4897186;29;20029;-85
2023/07/28 01:41:16;;;;;;;14.80;6.75;;;17.40;99.90;;;;;;4895395;29;20044;-85
2023/07/28 01:43:42;;;;;;;15.57;6.72;;;17.40;99.90;;;;;;4896995;29;20370;-83
2023/07/28 01:46:08;;;;;;;15.93;6.47;;;17.50;99.90;;;;;;4897448;29;20025;-85
2023/07/28 01:48:33;;;;;;;18.75;6.80;;;17.50;99.90;;;;;;4929705;29;20135;-84
2023/07/28 01:50:59;;;;;;;15.93;6.38;;;17.50;99.90;;;;;;4905463;29;20605;-83
2023/07/28 01:53:25;;;;;;;15.38;6.93;;;17.40;99.90;;;;;;4896682;29;20033;-85
2023/07/28 01:55:50;;;;;;;18.30;6.60;;;17.50;99.90;;;;;;4895282;29;20025;-84
2023/07/28 01:58:16;;;;;;;21.80;6.55;;;17.50;99.90;;;;;;4897273;29;20059;-86
2023/07/28 02:00:42;;;;;;;24.20;6.97;;;17.50;99.90;;;;;;4897131;29;20033;-85
2023/07/28 02:03:07;;;;;;;20.92;7.60;;;17.50;99.90;;;;;;4923574;29;20024;-84
2023/07/28 02:05:33;;;;;;;26.30;7.72;;;17.50;99.90;;;;;;4897960;29;20076;-82
2023/07/28 02:07:58;;;;;;;24.02;7.47;;;17.50;99.90;;;;;;4896912;29;20104;-85
2023/07/28 02:10:27;;;;;;;24.98;7.78;;;17.50;99.90;;;;;;4896280;29;20027;-84
2023/07/28 02:12:52;;;;;;;22.52;6.95;;;17.40;99.90;;;;;;4896796;29;20084;-84
2023/07/28 02:15:18;;;;;;;32.38;7.82;;;17.50;99.90;;;;;;4896933;29;20025;-84
2023/07/28 02:17:44;;;;;;;22.38;8.02;;;17.40;99.90;;;;;;4896723;29;20431;-84
2023/07/28 02:20:15;;;;;;;27.17;7.75;;;17.40;99.90;;;;;;4945601;23;20050;-82
2023/07/28 02:22:41;;;;;;;20.38;7.43;;;17.40;99.90;;;;;;4977566;28;20477;-82
2023/07/28 02:25:07;;;;;;;20.70;8.63;;;17.40;99.90;;;;;;4984385;28;20031;-82
2023/07/28 02:27:32;;;;;;;22.15;8.85;;;17.40;99.90;;;;;;4972303;28;20365;-82
2023/07/28 02:29:58;;;;;;;32.17;8.45;;;17.40;99.90;;;;;;4963972;28;20516;-81
2023/07/28 02:32:24;;;;;;;29.15;8.27;;;17.40;99.90;;;;;;4953170;28;20019;-82
2023/07/28 02:34:50;;;;;;;20.52;8.20;;;17.40;99.90;;;;;;4952936;28;20175;-82
2023/07/28 02:37:16;;;;;;;23.30;8.82;;;17.40;99.90;;;;;;4953227;28;20067;-82
2023/07/28 02:39:42;;;;;;;21.90;8.15;;;17.40;99.90;;;;;;4952757;28;20444;-82
2023/07/28 02:42:08;;;;;;;23.00;9.10;;;17.40;99.90;;;;;;4946242;28;20023;-82
2023/07/28 02:44:33;;;;;;;22.35;8.70;;;17.40;99.90;;;;;;4953102;28;20114;-83
2023/07/28 02:46:59;;;;;;;30.83;9.20;;;17.40;99.90;;;;;;4952875;28;20122;-82
2023/07/28 02:49:24;;;;;;;26.88;9.02;;;17.40;99.90;;;;;;4951315;28;20059;-82
2023/07/28 02:51:50;;;;;;;28.60;8.82;;;17.40;99.90;;;;;;4952757;28;20483;-81
2023/07/28 02:54:16;;;;;;;31.20;8.90;;;17.40;99.90;;;;;;4953005;28;20528;-82
2023/07/28 02:56:41;;;;;;;22.58;8.50;;;17.40;99.90;;;;;;4952582;28;20097;-81
2023/07/28 02:59:07;;;;;;;27.98;8.90;;;17.40;99.90;;;;;;4951711;28;20563;-82
2023/07/28 03:01:33;;;;;;;26.35;8.40;;;17.40;99.90;;;;;;4952733;28;20428;-83
2023/07/28 03:04:02;;;;;;;26.20;8.75;;;17.40;99.90;;;;;;4954888;28;20023;-82
2023/07/28 03:06:28;;;;;;;23.92;8.10;;;17.40;99.90;;;;;;4955560;28;20027;-82
2023/07/28 03:08:54;;;;;;;25.45;8.52;;;17.40;99.90;;;;;;4956167;28;20043;-82
2023/07/28 03:11:20;;;;;;;27.80;8.60;;;17.50;99.90;;;;;;4955935;28;20027;-82
2023/07/28 03:13:46;;;;;;;28.83;10.25;;;17.50;99.90;;;;;;4954772;28;20451;-82
2023/07/28 03:16:11;;;;;;;19.20;7.78;;;17.50;99.90;;;;;;4955832;28;20110;-82
2023/07/28 03:18:37;;;;;;;25.48;9.50;;;17.50;99.90;;;;;;4955856;28;20035;-82
2023/07/28 03:21:03;;;;;;;26.80;8.50;;;17.40;99.90;;;;;;4967595;23;20054;-84
2023/07/28 03:23:29;;;;;;;22.65;8.75;;;17.40;99.90;;;;;;4955774;28;20026;-84
2023/07/28 03:25:54;;;;;;;22.95;8.55;;;17.50;99.90;;;;;;4955868;28;20106;-85
2023/07/28 03:28:20;;;;;;;20.98;8.48;;;17.50;99.90;;;;;;4955747;28;20031;-83
2023/07/28 03:30:46;;;;;;;25.00;9.05;;;17.50;99.90;;;;;;4955678;28;20480;-85
2023/07/28 03:33:12;;;;;;;24.58;9.38;;;17.40;99.90;;;;;;4955753;28;20106;-83
2023/07/28 03:35:37;;;;;;;23.85;9.15;;;17.40;99.90;;;;;;4954007;28;20577;-84
2023/07/28 03:38:03;;;;;;;20.23;9.27;;;17.40;99.90;;;;;;4955647;28;20031;-85
2023/07/28 03:40:29;;;;;;;25.88;10.30;;;17.50;99.90;;;;;;4955572;28;20397;-84
2023/07/28 03:42:54;;;;;;;28.50;11.20;;;17.50;99.90;;;;;;4955775;28;20030;-84
2023/07/28 03:45:20;;;;;;;28.27;9.70;;;17.50;99.90;;;;;;4955286;28;20023;-85
2023/07/28 03:47:46;;;;;;;27.75;10.55;;;17.40;99.90;;;;;;4954856;28;20035;-84
2023/07/28 03:50:11;;;;;;;25.83;11.23;;;17.40;99.90;;;;;;4955119;28;20030;-85
2023/07/28 03:52:37;;;;;;;27.70;11.05;;;17.40;99.90;;;;;;4954163;28;20122;-85
2023/07/28 03:55:03;;;;;;;30.25;11.60;;;17.40;99.90;;;;;;4955281;28;20457;-84
2023/07/28 03:57:29;;;;;;;27.92;11.52;;;17.40;99.90;;;;;;4955607;28;20027;-85
2023/07/28 03:59:55;;;;;;;37.83;12.38;;;17.40;99.90;;;;;;4953868;28;20375;-85
2023/07/28 04:02:20;;;;;;;27.85;12.25;;;17.40;99.90;;;;;;4950897;28;20051;-84
2023/07/28 04:04:46;;;;;;;28.05;10.98;;;17.40;99.90;;;;;;4952349;28;20373;-84
2023/07/28 04:07:12;;;;;;;36.08;12.40;;;17.40;99.90;;;;;;4954063;28;20472;-84
2023/07/28 04:09:38;;;;;;;26.40;11.70;;;17.40;99.90;;;;;;4964265;28;20097;-85
2023/07/28 04:12:04;;;;;;;29.15;11.18;;;17.40;99.90;;;;;;4952567;28;20093;-84
2023/07/28 04:14:29;;;;;;;23.75;10.63;;;17.40;99.90;;;;;;4953295;28;20492;-85
2023/07/28 04:16:55;;;;;;;25.02;10.68;;;17.40;99.90;;;;;;4953437;28;20059;-84
2023/07/28 04:19:20;;;;;;;29.73;10.77;;;17.40;99.90;;;;;;4987340;22;20007;-80
2023/07/28 04:21:46;;;;;;;21.77;10.13;;;17.40;99.90;;;;;;4969684;28;20114;-83
2023/07/28 04:24:12;;;;;;;24.10;10.43;;;17.40;99.90;;;;;;4973895;28;20065;-82
2023/07/28 04:26:38;;;;;;;27.95;9.82;;;17.40;99.90;;;;;;4973801;28;20027;-82
2023/07/28 04:29:03;;;;;;;21.60;9.45;;;17.40;99.90;;;;;;4973714;28;20129;-82
2023/07/28 04:31:29;;;;;;;23.02;10.68;;;17.40;99.90;;;;;;4954203;28;20552;-82
2023/07/28 04:33:55;;;;;;;21.02;10.00;;;17.40;99.90;;;;;;4947550;28;20034;-82
2023/07/28 04:36:20;;;;;;;29.98;10.85;;;17.50;99.90;;;;;;4954145;28;20023;-83
2023/07/28 04:38:46;;;;;;;29.35;11.07;;;17.50;99.90;;;;;;4954485;28;20054;-82
2023/07/28 04:41:11;;;;;;;26.08;11.65;;;17.50;99.90;;;;;;4953184;28;20036;-83
2023/07/28 04:43:37;;;;;;;26.08;11.13;;;17.50;99.90;;;;;;4954467;28;20049;-81
2023/07/28 04:46:03;;;;;;;28.35;8.98;;;17.50;99.90;;;;;;4954511;28;20390;-83
2023/07/28 04:48:28;;;;;;;28.27;9.02;;;17.60;99.90;;;;;;4954472;28;20066;-82
2023/07/28 04:50:54;;;;;;;22.38;7.15;;;17.50;99.90;;;;;;4952551;28;20431;-82
2023/07/28 04:53:20;;;;;;;23.60;7.35;;;17.50;99.90;;;;;;4954265;28;20030;-82
2023/07/28 04:55:46;;;;;;;18.95;7.28;;;17.60;99.90;;;;;;4954180;28;20511;-83
2023/07/28 04:58:11;;;;;;;14.48;5.65;;;17.60;99.90;;;;;;4954105;28;20035;-82
2023/07/28 05:00:37;;;;;;;11.23;5.57;;;17.70;99.90;;;;;;4954029;28;20019;-81
2023/07/28 05:03:02;;;;;;;12.85;5.35;;;17.60;99.90;;;;;;4954308;28;20074;-81
2023/07/28 05:05:31;;;;;;;13.50;5.07;;;17.60;99.90;;;;;;4954125;28;20070;-81
2023/07/28 05:07:57;;;;;;;8.65;4.40;;;17.60;99.90;;;;;;4954110;28;20062;-83
2023/07/28 05:10:22;;;;;;;10.23;4.55;;;17.60;99.90;;;;;;4953604;28;20436;-81
2023/07/28 05:12:48;;;;;;;10.88;5.03;;;17.70;99.90;;;;;;4953940;28;20019;-81
2023/07/28 05:15:15;;;;;;;9.40;4.43;;;17.70;99.90;;;;;;4952535;28;20408;-80
2023/07/28 05:17:41;;;;;;;11.52;4.18;;;17.70;99.90;;;;;;4954027;28;20028;-80
2023/07/28 05:20:07;;;;;;;12.52;4.90;;;17.70;99.90;;;;;;4966229;23;20505;-82
2023/07/28 05:22:33;;;;;;;13.27;5.03;;;17.70;99.90;;;;;;4933618;29;20020;-82
2023/07/28 05:24:58;;;;;;;11.32;4.65;;;17.70;99.90;;;;;;4932249;29;20074;-83
2023/07/28 05:27:24;;;;;;;11.10;4.63;;;17.60;99.90;;;;;;4933368;29;20086;-82
2023/07/28 05:29:50;;;;;;;15.00;5.75;;;17.70;99.90;;;;;;4933718;29;20031;-82
2023/07/28 05:32:15;;;;;;;9.32;5.00;;;17.70;99.90;;;;;;4934197;29;20516;-82
2023/07/28 05:34:45;;;;;;;14.18;5.22;;;17.70;99.90;;;;;;4933098;29;20501;-82
2023/07/28 05:37:11;;;;;;;14.95;4.75;;;17.70;99.90;;;;;;4932475;29;20028;-81
2023/07/28 05:39:36;;;;;;;11.27;3.78;;;17.70;99.90;;;;;;4931421;29;20046;-83
2023/07/28 05:42:02;;;;;;;13.98;3.42;;;17.70;99.90;;;;;;4926262;29;20016;-83
2023/07/28 05:44:28;;;;;;;7.38;2.70;;;17.70;99.90;;;;;;4932263;29;20075;-82
2023/07/28 05:46:54;;;;;;;7.72;2.47;;;17.70;99.90;;;;;;4932237;29;20373;-85
2023/07/28 05:49:20;;;;;;;4.43;1.73;;;17.70;99.90;;;;;;4929838;29;20032;-82
2023/07/28 05:51:45;;;;;;;2.25;1.50;;;17.80;99.90;;;;;;4932792;29;20520;-83
2023/07/28 05:54:14;;;;;;;1.67;0.65;;;18.00;99.90;;;;;;4931316;29;20032;-83
2023/07/28 05:56:40;;;;;;;1.55;0.50;;;18.00;99.90;;;;;;4927174;29;20023;-82
2023/07/28 05:59:06;;;;;;;1.80;0.70;;;18.00;99.90;;;;;;4933210;29;20038;-82
2023/07/28 06:01:33;;;;;;;0.93;0.60;;;18.00;99.90;;;;;;4933045;29;20095;-82
2023/07/28 06:03:59;;;;;;;2.38;0.52;;;17.90;99.90;;;;;;4927576;29;20400;-82
2023/07/28 06:06:27;;;;;;;1.73;0.63;;;17.90;99.90;;;;;;4933496;29;20011;-83
2023/07/28 06:08:54;;;;;;;2.03;0.98;;;17.80;99.90;;;;;;4933346;29;20485;-82
2023/07/28 06:11:20;;;;;;;0.77;0.70;;;17.80;99.90;;;;;;4933463;29;20020;-83
2023/07/28 06:13:46;;;;;;;1.30;1.05;;;17.90;99.90;;;;;;4933454;29;20035;-82
2023/07/28 06:16:13;;;;;;;1.52;0.70;;;17.90;99.90;;;;;;4933174;29;20052;-82
2023/07/28 06:18:38;;;;;;;3.50;0.95;;;18.00;99.90;;;;;;4932172;29;20392;-83
2023/07/28 06:21:04;;;;;;;3.13;0.80;;;18.00;99.90;;;;;;4969928;23;20033;-80
2023/07/28 06:23:30;;;;;;;1.95;1.20;;;18.10;99.90;;;;;;4934077;29;20035;-79
2023/07/28 06:25:56;;;;;;;1.35;1.10;;;18.00;99.90;;;;;;4933545;29;20039;-80
2023/07/28 06:28:22;;;;;;;1.00;0.90;;;18.10;99.90;;;;;;4933595;29;20031;-81
2023/07/28 06:30:47;;;;;;;2.05;1.60;;;18.10;99.90;;;;;;4933861;29;20032;-81
2023/07/28 06:33:13;;;;;;;2.13;1.55;;;18.20;99.90;;;;;;4934059;29;20023;-81
2023/07/28 06:35:38;;;;;;;8.70;1.73;;;18.20;99.90;;;;;;4933656;29;20147;-80
2023/07/28 06:38:04;;;;;;;3.50;1.50;;;18.20;99.90;;;;;;4936939;29;20385;-81
2023/07/28 06:40:30;;;;;;;4.03;1.40;;;18.20;99.90;;;;;;4937070;29;20083;-81
2023/07/28 06:42:56;;;;;;;4.03;2.03;;;18.20;99.90;;;;;;4937459;29;20035;-81
2023/07/28 06:45:22;;;;;;;1.80;1.25;;;18.30;99.90;;;;;;4936075;29;20034;-80
2023/07/28 06:47:47;;;;;;;4.45;1.83;;;18.40;99.90;;;;;;4937193;29;20039;-81
2023/07/28 06:50:14;;;;;;;1.90;1.00;;;18.40;99.90;;;;;;4936635;29;20020;-82
2023/07/28 06:52:40;;;;;;;1.10;1.00;;;18.40;99.90;;;;;;4936632;29;20050;-82
2023/07/28 06:55:05;;;;;;;1.98;0.98;;;18.40;99.90;;;;;;4937022;29;20027;-82
2023/07/28 06:57:31;;;;;;;1.40;0.90;;;18.40;99.90;;;;;;4937123;29;20027;-81
2023/07/28 06:59:57;;;;;;;1.50;1.08;;;18.50;99.90;;;;;;4937140;29;20487;-81
2023/07/28 07:02:23;;;;;;;1.23;0.80;;;18.50;99.90;;;;;;4937243;29;20484;-81
2023/07/28 07:04:49;;;;;;;1.48;0.80;;;18.80;99.90;;;;;;4936925;29;20034;-81
2023/07/28 07:07:14;;;;;;;3.30;0.80;;;19.00;99.90;;;;;;4951803;28;20601;-81
2023/07/28 07:09:40;;;;;;;2.67;1.10;;;19.30;99.90;;;;;;4936910;29;20038;-80
2023/07/28 07:12:10;;;;;;;1.42;0.77;;;19.20;99.90;;;;;;4936530;29;20016;-81
2023/07/28 07:14:36;;;;;;;1.20;0.90;;;19.10;99.90;;;;;;4936844;29;20035;-80
2023/07/28 07:17:02;;;;;;;1.10;1.00;;;18.90;99.90;;;;;;4936578;29;20028;-81
2023/07/28 07:19:28;;;;;;;1.63;1.10;;;18.80;99.90;;;;;;4958141;23;20071;-87
2023/07/28 07:21:55;;;;;;;1.70;0.82;;;18.70;99.90;;;;;;4946580;28;20130;-86
2023/07/28 07:24:21;;;;;;;3.25;1.30;;;18.70;99.90;;;;;;4935209;29;20020;-85
2023/07/28 07:26:46;;;;;;;1.67;1.27;;;18.70;99.90;;;;;;4935835;29;20482;-83
2023/07/28 07:29:12;;;;;;;5.35;1.00;;;18.80;99.90;;;;;;4935547;29;20028;-85
2023/07/28 07:31:38;;;;;;;3.75;1.45;;;18.90;99.90;;;;;;4916725;29;20032;-85
2023/07/28 07:34:04;;;;;;;2.03;1.10;;;19.00;99.90;;;;;;4916771;29;20071;-84
2023/07/28 07:36:31;;;;;;;1.88;1.02;;;19.00;99.90;;;;;;4916258;29;20148;-85
2023/07/28 07:38:57;;;;;;;7.22;1.48;;;19.00;99.90;;;;;;4916258;29;20043;-83
2023/07/28 07:41:23;;;;;;;1.52;1.20;;;19.00;99.90;;;;;;4931097;29;20024;-85
2023/07/28 07:43:50;;;;;;;2.67;0.93;;;18.90;99.90;;;;;;4916268;29;20020;-85
2023/07/28 07:46:16;;;;;;;2.50;0.88;;;19.00;99.90;;;;;;4916428;29;20039;-83
2023/07/28 07:48:42;;;;;;;4.55;0.93;;;19.00;99.90;;;;;;4915908;29;20470;-85
2023/07/28 07:51:08;;;;;;;4.00;1.00;;;19.20;99.90;;;;;;4914603;29;20020;-84
2023/07/28 07:53:36;;;;;;;1.98;0.70;;;19.20;99.90;;;;;;4930343;29;20032;-84
2023/07/28 07:56:05;;;;;;;0.80;0.60;;;19.20;99.90;;;;;;4916338;29;20026;-84
2023/07/28 07:58:31;;;;;;;0.82;0.80;;;19.30;99.90;;;;;;4903778;29;20103;-85
2023/07/28 08:00:57;;;;;;;1.13;0.80;;;19.20;99.90;;;;;;4915782;29;20099;-86
2023/07/28 08:03:23;;;;;;;1.88;0.80;;;19.20;99.90;;;;;;4899968;29;20032;-85
2023/07/28 08:05:50;;;;;;;1.50;0.70;;;19.10;99.90;;;;;;4901482;29;20037;-84
2023/07/28 08:08:17;;;;;;;1.65;0.90;;;19.10;99.90;;;;;;4901961;29;20035;-85
2023/07/28 08:10:45;;;;;;;3.28;1.27;;;19.20;99.90;;;;;;4896316;29;20032;-84
2023/07/28 08:13:10;;;;;;;1.77;0.88;;;19.30;99.90;;;;;;4912334;29;20048;-85
2023/07/28 08:15:36;;;;;;;1.30;0.95;;;19.40;99.90;;;;;;4900668;29;20075;-86
2023/07/28 08:18:02;;;;;;;3.17;1.13;;;19.50;99.90;;;;;;4906429;29;20028;-87
2023/07/28 08:20:28;;;;;;;4.45;1.00;;;19.60;99.90;;;;;;4944710;23;20039;-81
2023/07/28 08:22:53;;;;;;;2.75;0.80;;;19.70;99.90;;;;;;4951497;28;20035;-80
2023/07/28 08:25:19;;;;;;;6.88;1.10;;;19.70;99.90;;;;;;4949687;28;20030;-80
2023/07/28 08:27:45;;;;;;;3.35;0.88;;;19.80;99.90;;;;;;4946548;28;20443;-82
2023/07/28 08:30:11;;;;;;;4.30;0.82;;;19.70;99.90;;;;;;4953844;28;20023;-82
2023/07/28 08:32:36;;;;;;;3.40;1.30;;;19.60;99.90;;;;;;4953684;28;20124;-80
2023/07/28 08:35:03;;;;;;;2.05;1.02;;;19.80;99.90;;;;;;4953976;28;20543;-81
2023/07/28 08:37:29;;;;;;;4.93;1.10;;;19.80;99.90;;;;;;4954123;28;20380;-80
2023/07/28 08:39:55;;;;;;;2.95;0.95;;;19.70;99.90;;;;;;4951829;28;20089;-81
2023/07/28 08:42:24;;;;;;;2.33;1.08;;;19.70;99.90;;;;;;4953803;28;20420;-80
2023/07/28 08:44:52;;;;;;;3.45;1.10;;;19.50;99.90;;;;;;4961508;28;20023;-80
2023/07/28 08:47:18;;;;;;;5.78;1.63;;;19.50;99.90;;;;;;4954378;28;20070;-81
2023/07/28 08:49:44;;;;;;;4.82;1.13;;;19.50;99.90;;;;;;4952720;28;20035;-81
2023/07/28 08:52:10;;;;;;;4.05;1.33;;;19.50;99.90;;;;;;4954327;28;20030;-80
2023/07/28 08:54:36;;;;;;;3.13;0.93;;;19.50;99.90;;;;;;4954527;28;20106;-82
2023/07/28 08:57:02;;;;;;;2.92;1.02;;;19.20;99.90;;;;;;4953484;28;20027;-80
2023/07/28 08:59:29;;;;;;;1.98;1.08;;;19.00;99.90;;;;;;4954144;28;20097;-80
2023/07/28 09:02:00;;;;;;;5.70;1.10;;;18.80;99.90;;;;;;4952280;28;20020;-82
2023/07/28 09:04:26;;;;;;;1.33;0.90;;;18.80;99.90;;;;;;4953891;28;20030;-80
2023/07/28 09:06:52;;;;;;;2.47;0.68;;;18.70;99.90;;;;;;4953905;28;20027;-81
2023/07/28 09:09:21;;;;;;;2.67;0.90;;;18.70;99.90;;;;;;4953793;28;20419;-80
2023/07/28 09:11:52;;;;;;;3.15;1.30;;;18.60;99.90;;;;;;4953621;28;20043;-80
2023/07/28 09:14:19;;;;;;;2.58;1.10;;;18.60;99.90;;;;;;4954244;28;20050;-80
2023/07/28 09:16:45;;;;;;;2.15;1.27;;;18.60;99.90;;;;;;4954458;28;20416;-82
2023/07/28 09:19:12;;;;;;;1.63;0.93;;;18.60;99.90;;;;;;4954217;28;20507;-79
2023/07/28 09:21:40;;;;;;;2.30;0.80;;;18.50;99.90;;;;;;4953686;23;20055;-85
2023/07/28 09:24:13;;;;;;;1.67;1.13;;;18.50;99.90;;;;;;4934091;29;20092;-83
2023/07/28 09:26:44;;;;;;;2.85;1.58;;;18.60;99.90;;;;;;4932196;29;20114;-84
2023/07/28 09:29:16;;;;;;;2.30;1.10;;;18.90;99.90;;;;;;4947949;29;20056;-84
2023/07/28 09:31:43;;;;;;;1.13;0.85;;;19.20;99.90;;;;;;4933470;29;20028;-84
2023/07/28 09:34:10;;;;;;;4.28;1.02;;;19.40;99.90;;;;;;4933931;29;20028;-83
2023/07/28 09:36:38;;;;;;;2.42;0.90;;;19.60;99.90;;;;;;4933549;29;20011;-83
2023/07/28 09:39:08;;;;;;;1.85;0.95;;;19.80;99.90;;;;;;4933470;29;20038;-83
2023/07/28 09:41:38;;;;;;;0.68;0.65;;;19.80;99.90;;;;;;4933344;29;20505;-83
2023/07/28 09:44:05;;;;;;;1.40;0.90;;;19.80;99.90;;;;;;4933844;29;20028;-83
2023/07/28 09:46:35;;;;;;;0.90;0.55;;;19.70;99.90;;;;;;4933215;29;20066;-83
2023/07/28 09:49:04;;;;;;;1.10;0.70;;;19.60;99.90;;;;;;4932902;29;20393;-84
2023/07/28 09:51:32;;;;;;;1.52;0.70;;;19.50;99.90;;;;;;4932838;29;20028;-84
2023/07/28 09:54:11;;;;;;;2.03;0.93;;;19.20;99.90;;;;;;4933727;29;20019;-85
2023/07/28 09:56:38;;;;;;;1.58;1.02;;;19.00;99.90;;;;;;4933397;29;20489;-84
2023/07/28 09:59:11;;;;;;;8.77;1.45;;;19.20;99.90;;;;;;4932979;29;20023;-84
2023/07/28 10:01:37;;;;;;;4.25;1.60;;;19.30;99.90;;;;;;4933257;29;20023;-84
2023/07/28 10:04:04;;;;;;;5.53;1.17;;;19.40;99.90;;;;;;4933755;29;20030;-83
2023/07/28 10:06:30;;;;;;;1.40;0.73;;;19.70;99.90;;;;;;4932854;29;20020;-83
2023/07/28 10:08:56;;;;;;;1.08;0.80;;;20.10;99.90;;;;;;4932762;29;20036;-83
2023/07/28 10:11:23;;;;;;;2.45;0.60;;;20.40;99.90;;;;;;4933580;29;20027;-84
2023/07/28 10:13:54;;;;;;;1.77;0.70;;;20.80;99.90;;;;;;4937293;29;20020;-83
2023/07/28 10:16:28;;;;;;;2.65;0.40;;;21.20;99.70;;;;;;4937242;29;20103;-84
2023/07/28 10:18:54;;;;;;;1.27;0.45;;;21.50;98.10;;;;;;4936903;29;20094;-83
2023/07/28 10:21:20;;;;;;;2.70;0.85;;;21.80;97.10;;;;;;4976919;23;20457;-81
2023/07/28 10:23:57;;;;;;;1.50;0.50;;;22.20;97.20;;;;;;4955990;28;20495;-81
2023/07/28 10:26:39;;;;;;;4.05;0.40;;;22.70;96.20;;;;;;4954380;29;20039;-81
2023/07/28 10:29:13;;;;;;;2.10;0.70;;;23.10;94.30;;;;;;4955489;29;20044;-81
2023/07/28 10:31:50;;;;;;;2.47;0.50;;;23.30;93.30;;;;;;4955400;28;20054;-81
2023/07/28 10:34:17;;;;;;;3.00;0.52;;;23.30;93.10;;;;;;4954545;29;20519;-81
2023/07/28 10:36:55;;;;;;;2.20;0.80;;;23.30;93.10;;;;;;4951369;28;20118;-82
2023/07/28 10:39:21;;;;;;;0.90;0.60;;;23.00;92.30;;;;;;4949180;28;20534;-82
2023/07/28 10:42:04;;;;;;;0.32;0.32;;;22.70;93.60;;;;;;4954361;28;20098;-81
2023/07/28 10:44:30;;;;;;;1.30;0.50;;;22.60;93.50;;;;;;4941099;29;20031;-80
2023/07/28 10:46:58;;;;;;;1.90;0.63;;;22.20;93.80;;;;;;4950316;28;20026;-81
2023/07/28 10:49:25;;;;;;;3.05;0.70;;;22.40;95.40;;;;;;4955031;28;20042;-80
2023/07/28 10:51:51;;;;;;;1.25;0.50;;;22.70;93.90;;;;;;4955243;28;20090;-80
2023/07/28 10:54:19;;;;;;;1.77;0.82;;;22.90;92.70;;;;;;4954119;29;20031;-80
2023/07/28 10:56:47;;;;;;;4.38;0.77;;;23.40;92.90;;;;;;4954917;29;20073;-82
2023/07/28 10:59:13;;;;;;;2.88;0.60;;;23.40;91.90;;;;;;4953265;29;20023;-80
2023/07/28 11:01:40;;;;;;;3.95;1.10;;;23.40;92.20;;;;;;4954917;28;20027;-81
2023/07/28 11:04:11;;;;;;;3.92;1.50;;;23.40;91.80;;;;;;4955135;28;20023;-82
2023/07/28 11:06:44;;;;;;;3.28;1.00;;;23.20;91.40;;;;;;4948359;28;20019;-81
2023/07/28 11:09:11;;;;;;;3.85;1.35;;;23.10;94.20;;;;;;4954512;28;20030;-80
2023/07/28 11:11:38;;;;;;;4.20;1.50;;;23.10;92.90;;;;;;4954346;28;20016;-81
2023/07/28 11:14:08;;;;;;;3.22;1.60;;;22.90;92.50;;;;;;4953727;29;20031;-81
2023/07/28 11:16:36;;;;;;;3.33;1.02;;;22.80;94.20;;;;;;4952638;28;20367;-81
2023/07/28 11:19:02;;;;;;;2.70;0.90;;;22.70;92.90;;;;;;4952732;28;20491;-81
2023/07/28 11:21:28;;;;;;;3.55;1.05;;;22.60;91.90;;;;;;4953608;28;20027;-81
2023/07/28 11:23:54;;;;;;;3.95;1.10;;;22.40;92.90;;;;;;4952739;28;20484;-81
2023/07/28 11:26:22;;;;;;;3.00;1.00;;;22.40;93.80;;;;;;4954802;29;20062;-81
2023/07/28 11:28:48;;;;;;;3.25;1.00;;;22.40;94.30;;;;;;4954001;28;20027;-81
2023/07/28 11:31:14;;;;;;;2.10;0.80;;;22.60;93.50;;;;;;4954540;28;20579;-81
2023/07/28 11:33:40;;;;;;;4.43;1.42;;;23.00;94.50;;;;;;4946210;29;20082;-81
2023/07/28 11:36:06;;;;;;;2.78;0.70;;;23.60;92.40;;;;;;4946526;28;20041;-81
2023/07/28 11:38:33;;;;;;;2.72;1.00;;;24.40;91.20;;;;;;4936851;28;20024;-81
2023/07/28 11:40:59;;;;;;;3.80;0.93;;;24.50;88.60;;;;;;4953974;28;20019;-83
2023/07/28 11:43:26;;;;;;;2.83;1.10;;;24.50;89.20;;;;;;4953958;28;20051;-81
2023/07/28 11:45:51;;;;;;;3.80;1.10;;;24.70;89.10;;;;;;4954534;29;20023;-81
2023/07/28 11:48:17;;;;;;;3.70;1.10;;;24.70;87.20;;;;;;4954095;29;20459;-82
2023/07/28 11:50:45;;;;;;;2.33;0.90;;;24.70;84.90;;;;;;4941197;29;20027;-81
2023/07/28 11:53:11;;;;;;;1.60;0.77;;;25.00;84.20;;;;;;4937827;29;20046;-81
2023/07/28 11:55:38;;;;;;;2.28;0.82;;;25.40;86.70;;;;;;4952317;29;20015;-82
2023/07/28 11:58:07;;;;;;;2.33;0.65;;;25.40;83.80;;;;;;4953694;28;20078;-81
2023/07/28 12:00:39;;;;;;;3.17;0.90;;;25.30;83.70;;;;;;4954111;28;20051;-82
2023/07/28 12:03:09;;;;;;;4.10;1.20;;;25.30;82.20;;;;;;4944284;28;20048;-84
2023/07/28 12:05:36;;;;;;;4.75;0.93;;;25.40;83.20;;;;;;4927561;29;20519;-84
2023/07/28 12:08:04;;;;;;;2.70;0.90;;;25.80;85.20;;;;;;4928184;29;20131;-85
2023/07/28 12:10:31;;;;;;;1.58;0.75;;;26.20;81.70;;;;;;4928360;29;20047;-83
2023/07/28 12:13:03;;;;;;;3.67;0.90;;;26.00;81.50;;;;;;4926110;29;20079;-84
2023/07/28 12:15:32;;;;;;;5.25;1.40;;;26.20;81.50;;;;;;4918478;29;20030;-85
2023/07/28 12:18:13;;;;;;;1.98;0.90;;;26.30;79.50;;;;;;4921687;29;20095;-83
2023/07/28 12:20:47;;;;;;;6.80;1.10;;;26.10;81.10;;;;;;4927574;29;20413;-82
2023/07/28 12:23:22;;;;;;;2.60;0.80;;;26.00;78.50;;;;;;4928001;29;20075;-80
2023/07/28 12:25:50;;;;;;;2.30;1.05;;;25.60;80.60;;;;;;4927522;28;20038;-82
2023/07/28 12:28:16;;;;;;;6.18;1.38;;;25.40;82.70;;;;;;4929544;29;20527;-81
2023/07/28 12:30:43;;;;;;;4.15;1.20;;;25.50;83.80;;;;;;4926484;29;20039;-83
2023/07/28 12:33:08;;;;;;;6.25;1.45;;;25.30;83.00;;;;;;4927254;29;20035;-82
2023/07/28 12:35:35;;;;;;;4.22;1.02;;;25.20;83.10;;;;;;4929805;29;20027;-83
2023/07/28 12:38:05;;;;;;;2.20;1.00;;;25.00;81.60;;;;;;4928458;29;20669;-82
2023/07/28 12:40:32;;;;;;;3.55;0.95;;;25.20;83.00;;;;;;4928736;29;20032;-81